createdAt,value
2022-09-10T00:00:06.747Z,8.78
2022-09-10T00:02:33.731Z,8.80
2022-09-10T00:05:00.918Z,8.81
2022-09-10T00:07:27.890Z,8.69
2022-09-10T00:09:56.324Z,8.67
2022-09-10T00:12:23.205Z,8.59
2022-09-10T00:14:50.143Z,8.57
2022-09-10T00:17:17.012Z,8.62
2022-09-10T00:19:43.814Z,8.65
2022-09-10T00:22:10.990Z,8.61
2022-09-10T00:24:37.915Z,8.49
2022-09-10T00:27:07.385Z,8.53
2022-09-10T00:29:34.177Z,8.43
2022-09-10T00:32:02.894Z,8.45
2022-09-10T00:34:29.882Z,8.44
2022-09-10T00:36:57.667Z,8.40
2022-09-10T00:39:28.850Z,8.29
2022-09-10T00:41:55.649Z,8.26
2022-09-10T00:44:59.194Z,8.25
2022-09-10T00:47:31.597Z,8.26
2022-09-10T00:50:07.482Z,8.11
2022-09-10T00:52:39.562Z,8.07
2022-09-10T00:55:08.618Z,7.99
2022-09-10T00:57:35.609Z,7.96
2022-09-10T01:00:08.226Z,7.93
2022-09-10T01:02:35.036Z,8.01
2022-09-10T01:05:04.379Z,7.99
2022-09-10T01:07:32.225Z,7.88
2022-09-10T01:10:01.966Z,8.00
2022-09-10T01:12:51.874Z,7.97
2022-09-10T01:15:33.458Z,7.98
2022-09-10T01:18:13.243Z,7.90
2022-09-10T01:20:54.539Z,7.93
2022-09-10T01:24:01.362Z,7.97
2022-09-10T01:26:47.115Z,7.91
2022-09-10T01:29:23.114Z,7.82
2022-09-10T01:32:02.554Z,7.74
2022-09-10T01:34:34.569Z,7.55
2022-09-10T01:37:06.088Z,7.61
2022-09-10T01:39:32.937Z,7.61
2022-09-10T01:42:00.570Z,7.63
2022-09-10T01:44:46.703Z,7.76
2022-09-10T01:47:22.270Z,7.81
2022-09-10T01:50:09.778Z,7.77
2022-09-10T01:52:51.266Z,7.68
2022-09-10T01:55:32.218Z,7.65
2022-09-10T01:58:16.582Z,7.52
2022-09-10T02:00:52.236Z,7.59
2022-09-10T02:03:25.399Z,7.55
2022-09-10T02:05:54.845Z,7.48
2022-09-10T02:08:27.196Z,7.48
2022-09-10T02:10:57.751Z,7.43
2022-09-10T02:13:25.510Z,7.31
2022-09-10T02:15:54.209Z,7.23
2022-09-10T02:18:23.499Z,7.21
2022-09-10T02:20:54.838Z,7.25
2022-09-10T02:23:29.423Z,7.26
2022-09-10T02:25:57.750Z,7.24
2022-09-10T02:28:24.756Z,7.32
2022-09-10T02:30:53.256Z,7.15
2022-09-10T02:33:24.799Z,7.16
2022-09-10T02:35:51.525Z,7.18
2022-09-10T02:38:21.229Z,7.12
2022-09-10T02:40:49.621Z,7.18
2022-09-10T02:43:18.059Z,7.19
2022-09-10T02:45:47.153Z,7.13
2022-09-10T02:48:15.586Z,7.12
2022-09-10T02:50:46.763Z,7.15
2022-09-10T02:53:13.677Z,7.14
2022-09-10T02:55:40.589Z,7.08
2022-09-10T02:58:07.295Z,7.13
2022-09-10T03:00:34.811Z,7.14
2022-09-10T03:03:03.178Z,7.08
2022-09-10T03:05:32.055Z,7.04
2022-09-10T03:07:59.067Z,6.97
2022-09-10T03:10:29.566Z,7.01
2022-09-10T03:12:56.454Z,6.99
2022-09-10T03:15:24.321Z,7.03
2022-09-10T03:17:51.779Z,7.04
2022-09-10T03:20:19.038Z,7.04
2022-09-10T03:22:47.950Z,6.87
2022-09-10T03:25:15.317Z,6.91
2022-09-10T03:27:42.922Z,6.92
2022-09-10T03:30:11.799Z,6.87
2022-09-10T03:32:38.675Z,6.80
2022-09-10T03:35:07.847Z,6.79
2022-09-10T03:37:35.487Z,6.81
2022-09-10T03:40:06.722Z,6.79
2022-09-10T03:42:34.648Z,6.73
2022-09-10T03:45:01.654Z,6.71
2022-09-10T03:47:29.554Z,6.71
2022-09-10T03:49:59.498Z,6.74
2022-09-10T03:52:27.531Z,6.85
2022-09-10T03:54:55.624Z,6.79
2022-09-10T03:57:25.002Z,6.89
2022-09-10T03:59:51.760Z,6.86
2022-09-10T04:02:21.703Z,6.80
2022-09-10T04:04:49.122Z,6.76
2022-09-10T04:07:18.103Z,6.71
2022-09-10T04:09:45.522Z,6.69
2022-09-10T04:12:13.723Z,6.70
2022-09-10T04:14:42.155Z,6.65
2022-09-10T04:17:10.479Z,6.75
2022-09-10T04:19:37.276Z,6.70
2022-09-10T04:22:04.666Z,6.72
2022-09-10T04:24:31.514Z,6.75
2022-09-10T04:27:00.131Z,6.79
2022-09-10T04:29:29.991Z,6.82
2022-09-10T04:31:58.098Z,6.88
2022-09-10T04:34:26.973Z,6.89
2022-09-10T04:36:54.290Z,7.01
2022-09-10T04:39:21.103Z,6.99
2022-09-10T04:41:48.930Z,7.09
2022-09-10T04:44:17.106Z,7.14
2022-09-10T04:46:45.821Z,7.20
2022-09-10T04:49:15.210Z,7.22
2022-09-10T04:51:42.200Z,7.29
2022-09-10T04:54:11.447Z,7.28
2022-09-10T04:56:38.448Z,7.25
2022-09-10T04:59:06.019Z,7.23
2022-09-10T05:01:35.950Z,7.04
2022-09-10T05:04:06.297Z,7.00
2022-09-10T05:06:34.463Z,6.89
2022-09-10T05:09:01.478Z,6.84
2022-09-10T05:11:28.499Z,6.85
2022-09-10T05:13:55.847Z,6.86
2022-09-10T05:16:22.640Z,6.92
2022-09-10T05:18:50.603Z,6.92
2022-09-10T05:21:22.863Z,6.89
2022-09-10T05:23:51.023Z,6.82
2022-09-10T05:26:20.562Z,6.88
2022-09-10T05:28:49.088Z,6.96
2022-09-10T05:31:16.088Z,6.89
2022-09-10T05:33:43.599Z,7.01
2022-09-10T05:36:10.833Z,7.05
2022-09-10T05:38:39.991Z,7.15
2022-09-10T05:41:11.240Z,7.19
2022-09-10T05:43:38.491Z,7.24
2022-09-10T05:46:06.686Z,7.24
2022-09-10T05:48:33.497Z,7.27
2022-09-10T05:51:04.535Z,7.19
2022-09-10T05:53:33.475Z,7.18
2022-09-10T05:56:02.900Z,7.15
2022-09-10T05:58:31.084Z,7.05
2022-09-10T06:00:57.952Z,7.07
2022-09-10T06:03:24.859Z,7.13
2022-09-10T06:05:52.488Z,7.77
2022-09-10T06:08:20.385Z,8.22
2022-09-10T06:10:57.837Z,8.73
2022-09-10T06:13:26.064Z,9.16
2022-09-10T06:15:54.565Z,9.49
2022-09-10T06:18:23.727Z,9.93
2022-09-10T06:21:01.648Z,10.23
2022-09-10T06:23:30.723Z,10.53
2022-09-10T06:26:03.834Z,10.57
2022-09-10T06:28:33.570Z,10.46
2022-09-10T06:31:04.797Z,10.81
2022-09-10T06:33:36.113Z,11.17
2022-09-10T06:36:04.888Z,11.39
2022-09-10T06:38:33.755Z,11.71
2022-09-10T06:41:05.005Z,12.12
2022-09-10T06:43:34.860Z,12.36
2022-09-10T06:46:24.874Z,12.63
2022-09-10T06:48:55.269Z,12.94
2022-09-10T06:51:23.605Z,12.59
2022-09-10T06:53:52.930Z,11.95
2022-09-10T06:56:19.679Z,11.55
2022-09-10T06:58:48.570Z,11.51
2022-09-10T07:01:19.445Z,11.44
2022-09-10T07:03:48.891Z,11.16
2022-09-10T07:06:17.351Z,11.35
2022-09-10T07:08:48.259Z,11.56
2022-09-10T07:11:16.971Z,11.88
2022-09-10T07:13:44.741Z,12.02
2022-09-10T07:16:17.126Z,12.31
2022-09-10T07:18:48.774Z,12.52
2022-09-10T07:23:55.666Z,13.01
2022-09-10T07:26:24.897Z,13.31
2022-09-10T07:28:53.787Z,13.63
2022-09-10T07:31:28.895Z,13.68
2022-09-10T07:33:57.966Z,13.66
2022-09-10T07:36:26.049Z,13.53
2022-09-10T07:38:56.133Z,13.35
2022-09-10T07:41:33.882Z,13.24
2022-09-10T07:44:00.611Z,13.02
2022-09-10T07:46:27.420Z,12.67
2022-09-10T07:48:55.897Z,12.55
2022-09-10T07:51:25.561Z,12.35
2022-09-10T07:53:54.238Z,12.22
2022-09-10T07:56:23.415Z,11.97
2022-09-10T07:58:50.654Z,12.25
2022-09-10T08:01:17.648Z,12.52
2022-09-10T08:03:45.586Z,12.99
2022-09-10T08:06:13.285Z,13.41
2022-09-10T08:08:44.898Z,13.82
2022-09-10T08:11:13.447Z,13.97
2022-09-10T08:13:43.994Z,13.99
2022-09-10T08:16:12.877Z,14.03
2022-09-10T08:18:47.532Z,13.93
2022-09-10T08:21:16.404Z,13.88
2022-09-10T08:23:48.540Z,13.69
2022-09-10T08:26:16.500Z,13.56
2022-09-10T08:28:46.329Z,13.48
2022-09-10T08:31:13.230Z,13.77
2022-09-10T08:33:40.885Z,13.94
2022-09-10T08:36:10.553Z,14.43
2022-09-10T08:38:39.718Z,14.91
2022-09-10T08:41:19.674Z,14.72
2022-09-10T08:43:54.662Z,14.90
2022-09-10T08:46:24.317Z,15.11
2022-09-10T08:49:00.136Z,15.71
2022-09-10T08:51:32.569Z,16.19
2022-09-10T08:54:05.048Z,16.59
2022-09-10T08:56:34.525Z,16.87
2022-09-10T08:59:05.010Z,17.09
2022-09-10T09:01:40.735Z,17.27
2022-09-10T09:04:16.182Z,17.58
2022-09-10T09:06:48.271Z,17.23
2022-09-10T09:09:16.084Z,17.48
2022-09-10T09:11:52.150Z,17.79
2022-09-10T09:14:34.861Z,18.06
2022-09-10T09:17:16.725Z,18.24
2022-09-10T09:19:52.367Z,18.42
2022-09-10T09:22:36.993Z,18.37
2022-09-10T09:25:21.066Z,18.60
2022-09-10T09:27:53.065Z,18.53
2022-09-10T09:30:23.964Z,18.78
2022-09-10T09:32:58.415Z,18.82
2022-09-10T09:35:36.076Z,18.84
2022-09-10T09:38:33.388Z,19.00
2022-09-10T09:41:03.908Z,19.18
2022-09-10T09:43:41.443Z,19.21
2022-09-10T09:46:16.852Z,19.44
2022-09-10T09:48:45.456Z,19.61
2022-09-10T09:51:17.237Z,19.82
2022-09-10T09:53:48.157Z,19.84
2022-09-10T09:56:21.947Z,19.87
2022-09-10T09:58:53.915Z,19.80
2022-09-10T10:01:24.627Z,20.10
2022-09-10T10:03:57.178Z,20.24
2022-09-10T10:06:28.548Z,20.42
2022-09-10T10:09:01.234Z,20.31
2022-09-10T10:11:47.029Z,20.44
2022-09-10T10:14:37.170Z,20.52
2022-09-10T10:17:39.070Z,20.49
2022-09-10T10:20:14.572Z,20.32
2022-09-10T10:22:44.052Z,20.34
2022-09-10T10:25:37.450Z,20.44
2022-09-10T10:28:29.444Z,20.61
2022-09-10T10:31:03.514Z,20.76
2022-09-10T10:33:33.947Z,21.00
2022-09-10T10:36:10.474Z,21.18
2022-09-10T10:38:49.007Z,21.10
2022-09-10T10:41:35.598Z,21.03
2022-09-10T10:44:49.145Z,21.08
2022-09-10T10:47:41.816Z,21.19
2022-09-10T10:50:20.418Z,21.41
2022-09-10T10:53:01.261Z,21.48
2022-09-10T10:55:38.428Z,21.67
2022-09-10T10:58:19.607Z,21.88
2022-09-10T11:00:58.278Z,21.98
2022-09-10T11:03:35.892Z,22.10
2022-09-10T11:06:08.673Z,22.22
2022-09-10T11:08:43.365Z,22.09
2022-09-10T11:11:15.555Z,22.11
2022-09-10T11:13:50.812Z,22.04
2022-09-10T11:16:24.207Z,22.00
2022-09-10T11:18:57.042Z,21.93
2022-09-10T11:21:33.587Z,21.98
2022-09-10T11:24:04.945Z,22.13
2022-09-10T11:26:37.757Z,22.24
2022-09-10T11:29:22.109Z,21.96
2022-09-10T11:31:58.522Z,21.13
2022-09-10T11:34:40.172Z,20.83
2022-09-10T11:37:15.203Z,20.54
2022-09-10T11:39:47.384Z,20.23
2022-09-10T11:42:22.417Z,20.03
2022-09-10T11:44:59.972Z,19.67
2022-09-10T11:47:33.218Z,19.39
2022-09-10T11:50:08.716Z,19.08
2022-09-10T11:52:45.571Z,19.21
2022-09-10T11:55:18.463Z,19.58
2022-09-10T11:57:58.593Z,19.87
2022-09-10T12:00:38.780Z,20.00
2022-09-10T12:03:35.384Z,20.05
2022-09-10T12:06:14.095Z,20.11
2022-09-10T12:09:01.109Z,20.13
2022-09-10T12:11:36.883Z,20.09
2022-09-10T12:14:07.726Z,20.07
2022-09-10T12:16:44.589Z,19.99
2022-09-10T12:19:23.211Z,19.95
2022-09-10T12:21:56.984Z,19.75
2022-09-10T12:24:29.195Z,19.73
2022-09-10T12:27:00.959Z,19.71
2022-09-10T12:29:33.939Z,19.72
2022-09-10T12:35:46.084Z,19.36
2022-09-10T12:38:52.032Z,18.42
2022-09-10T12:42:02.560Z,18.29
2022-09-10T12:44:46.558Z,18.24
2022-09-10T12:47:53.337Z,18.23
2022-09-10T12:50:29.110Z,18.17
2022-09-10T12:53:22.645Z,18.01
2022-09-10T12:56:02.057Z,18.06
2022-09-10T12:58:47.531Z,17.86
2022-09-10T13:01:26.152Z,17.82
2022-09-10T13:04:01.901Z,17.61
2022-09-10T13:06:37.439Z,17.42
2022-09-10T13:09:20.037Z,17.01
2022-09-10T13:11:52.542Z,16.22
2022-09-10T13:14:27.043Z,15.78
2022-09-10T13:16:55.442Z,15.57
2022-09-10T13:19:50.641Z,15.32
2022-09-10T13:23:01.690Z,15.38
2022-09-10T13:25:37.561Z,15.47
2022-09-10T13:28:50.378Z,15.45
2022-09-10T13:31:28.488Z,14.72
2022-09-10T13:34:21.361Z,14.19
2022-09-10T13:37:03.297Z,13.79
2022-09-10T13:40:17.485Z,13.50
2022-09-10T13:43:06.837Z,12.77
2022-09-10T13:45:50.901Z,12.32
2022-09-10T13:48:21.157Z,12.02
2022-09-10T13:50:57.753Z,11.67
2022-09-10T13:53:27.116Z,11.39
2022-09-10T13:55:59.077Z,11.38
2022-09-10T13:58:30.399Z,11.36
2022-09-10T14:01:01.568Z,11.34
2022-09-10T14:03:34.763Z,11.20
2022-09-10T14:06:05.717Z,11.36
2022-09-10T14:08:37.610Z,11.31
2022-09-10T14:11:25.707Z,11.40
2022-09-10T14:13:58.522Z,11.25
2022-09-10T14:16:31.302Z,11.16
2022-09-10T14:19:02.314Z,11.24
2022-09-10T14:21:31.598Z,11.39
2022-09-10T14:24:00.387Z,11.55
2022-09-10T14:26:29.616Z,11.59
2022-09-10T14:29:02.555Z,11.73
2022-09-10T14:31:36.843Z,11.76
2022-09-10T14:34:23.796Z,11.75
2022-09-10T14:36:50.799Z,11.71
2022-09-10T14:39:19.811Z,11.74
2022-09-10T14:41:50.459Z,11.70
2022-09-10T14:44:28.601Z,11.73
2022-09-10T14:47:01.011Z,11.70
2022-09-10T14:49:32.354Z,11.71
2022-09-10T14:52:01.688Z,11.72
2022-09-10T14:54:33.970Z,11.67
2022-09-10T14:57:04.029Z,11.69
2022-09-10T14:59:34.243Z,11.62
2022-09-10T15:02:06.205Z,11.34
2022-09-10T15:04:34.946Z,11.29
2022-09-10T15:07:02.694Z,11.07
2022-09-10T15:09:31.954Z,11.18
2022-09-10T15:12:05.040Z,11.20
2022-09-10T15:14:33.121Z,11.30
2022-09-10T15:17:00.290Z,11.31
2022-09-10T15:19:29.960Z,11.24
2022-09-10T15:21:58.054Z,11.25
2022-09-10T15:24:30.310Z,11.15
2022-09-10T15:27:00.197Z,11.20
2022-09-10T15:29:30.670Z,11.07
2022-09-10T15:31:59.312Z,11.11
2022-09-10T15:34:30.713Z,11.05
2022-09-10T15:36:57.728Z,11.00
2022-09-10T15:39:28.706Z,10.79
2022-09-10T15:41:57.749Z,10.72
2022-09-10T15:44:25.542Z,10.67
2022-09-10T15:46:53.349Z,10.54
2022-09-10T15:49:20.845Z,10.43
2022-09-10T15:51:50.643Z,10.43
2022-09-10T15:54:19.469Z,10.39
2022-09-10T15:56:47.716Z,10.43
2022-09-10T15:59:15.194Z,10.47
2022-09-10T16:01:43.927Z,10.42
2022-09-10T16:04:11.175Z,10.37
2022-09-10T16:06:40.303Z,10.42
2022-09-10T16:09:10.988Z,10.38
2022-09-10T16:11:44.327Z,10.40
2022-09-10T16:14:13.571Z,10.40
2022-09-10T16:16:41.839Z,10.45
2022-09-10T16:19:10.650Z,10.41
2022-09-10T16:21:38.723Z,10.49
2022-09-10T16:24:09.684Z,10.39
2022-09-10T16:26:40.433Z,10.43
2022-09-10T16:29:13.662Z,10.48
2022-09-10T16:31:44.958Z,10.45
2022-09-10T16:34:14.215Z,10.44
2022-09-10T16:36:41.728Z,10.40
2022-09-10T16:39:13.394Z,10.50
2022-09-10T16:41:43.277Z,10.51
2022-09-10T16:44:11.026Z,10.55
2022-09-10T16:46:39.724Z,10.62
2022-09-10T16:49:12.504Z,10.74
2022-09-10T16:51:41.468Z,10.85
2022-09-10T16:54:13.109Z,10.89
2022-09-10T16:56:42.827Z,10.93
2022-09-10T16:59:12.846Z,11.02
2022-09-10T17:01:39.848Z,11.04
2022-09-10T17:04:09.195Z,11.00
2022-09-10T17:06:35.944Z,10.93
2022-09-10T17:09:05.056Z,10.89
2022-09-10T17:11:33.798Z,10.76
2022-09-10T17:14:01.986Z,10.70
2022-09-10T17:16:30.864Z,10.66
2022-09-10T17:18:59.883Z,10.66
2022-09-10T17:21:27.598Z,10.48
2022-09-10T17:23:56.231Z,10.43
2022-09-10T17:26:24.742Z,10.30
2022-09-10T17:28:57.335Z,10.22
2022-09-10T17:31:26.002Z,10.26
2022-09-10T17:33:53.032Z,10.22
2022-09-10T17:36:19.811Z,10.15
2022-09-10T17:38:46.722Z,10.04
2022-09-10T17:41:14.648Z,10.09
2022-09-10T17:43:43.322Z,10.13
2022-09-10T17:46:19.234Z,10.08
2022-09-10T17:48:47.364Z,10.00
2022-09-10T17:51:17.966Z,9.85
2022-09-10T17:53:45.097Z,9.82
2022-09-10T17:56:19.232Z,9.71
2022-09-10T17:58:46.727Z,9.74
2022-09-10T18:01:23.545Z,9.61
2022-09-10T18:03:54.119Z,9.62
2022-09-10T18:06:26.499Z,9.51
2022-09-10T18:08:53.238Z,9.47
2022-09-10T18:11:25.316Z,9.32
2022-09-10T18:13:54.027Z,9.28
2022-09-10T18:16:24.859Z,9.04
2022-09-10T18:18:53.036Z,9.00
2022-09-10T18:21:24.539Z,8.87
2022-09-10T18:23:52.925Z,8.83
2022-09-10T18:26:22.775Z,8.68
2022-09-10T18:28:56.467Z,8.71
2022-09-10T18:31:26.609Z,8.63
2022-09-10T18:33:54.492Z,8.53
2022-09-10T18:36:23.033Z,8.37
2022-09-10T18:38:52.511Z,8.34
2022-09-10T18:41:21.354Z,8.38
2022-09-10T18:43:51.515Z,8.22
2022-09-10T18:46:19.691Z,8.27
2022-09-10T18:48:48.675Z,8.30
2022-09-10T18:51:18.168Z,8.13
2022-09-10T18:53:48.741Z,8.17
2022-09-10T18:56:19.517Z,8.09
2022-09-10T18:58:49.094Z,8.19
2022-09-10T19:01:16.623Z,8.19
2022-09-10T19:03:45.867Z,8.11
2022-09-10T19:06:17.284Z,8.07
2022-09-10T19:08:47.676Z,7.96
2022-09-10T19:11:15.086Z,8.04
2022-09-10T19:13:48.764Z,8.00
2022-09-10T19:16:16.582Z,8.01
2022-09-10T19:18:43.870Z,8.05
2022-09-10T19:21:12.867Z,8.01
2022-09-10T19:23:41.040Z,7.91
2022-09-10T19:26:09.067Z,7.97
2022-09-10T19:28:36.436Z,7.93
2022-09-10T19:31:04.644Z,7.83
2022-09-10T19:33:32.559Z,7.74
2022-09-10T19:36:04.310Z,7.70
2022-09-10T19:38:47.301Z,7.69
2022-09-10T19:41:18.472Z,7.82
2022-09-10T19:43:46.161Z,7.89
2022-09-10T19:46:13.540Z,7.96
2022-09-10T19:48:41.084Z,7.95
2022-09-10T19:51:14.351Z,7.93
2022-09-10T19:53:42.105Z,7.90
2022-09-10T19:56:12.229Z,7.86
2022-09-10T19:58:41.408Z,7.88
2022-09-10T20:01:09.638Z,7.87
2022-09-10T20:03:36.814Z,7.90
2022-09-10T20:06:06.486Z,7.86
2022-09-10T20:08:34.627Z,7.79
2022-09-10T20:11:03.998Z,7.69
2022-09-10T20:13:32.330Z,7.65
2022-09-10T20:16:01.801Z,7.63
2022-09-10T20:18:30.609Z,7.61
2022-09-10T20:21:08.568Z,7.55
2022-09-10T20:23:37.513Z,7.51
2022-09-10T20:26:08.850Z,7.42
2022-09-10T20:28:39.358Z,7.35
2022-09-10T20:31:09.469Z,7.45
2022-09-10T20:33:37.951Z,7.47
2022-09-10T20:36:11.412Z,7.43
2022-09-10T20:38:39.677Z,7.40
2022-09-10T20:41:07.108Z,7.34
2022-09-10T20:43:36.637Z,7.31
2022-09-10T20:46:03.742Z,7.38
2022-09-10T20:48:34.464Z,7.19
2022-09-10T20:51:01.347Z,7.14
2022-09-10T20:53:28.441Z,7.16
2022-09-10T20:56:02.101Z,7.14
2022-09-10T20:58:29.122Z,7.21
2022-09-10T21:01:04.093Z,7.25
2022-09-10T21:03:34.448Z,7.30
2022-09-10T21:06:01.218Z,7.26
2022-09-10T21:08:29.780Z,7.29
2022-09-10T21:10:58.032Z,7.39
2022-09-10T21:13:26.205Z,7.44
2022-09-10T21:15:53.598Z,7.45
2022-09-10T21:18:20.574Z,7.54
2022-09-10T21:20:48.690Z,7.60
2022-09-10T21:23:17.504Z,7.53
2022-09-10T21:25:50.464Z,7.58
2022-09-10T21:28:17.441Z,7.58
2022-09-10T21:30:44.260Z,7.56
2022-09-10T21:33:11.951Z,7.64
2022-09-10T21:35:39.293Z,7.54
2022-09-10T21:38:08.756Z,7.56
2022-09-10T21:40:35.658Z,7.54
2022-09-10T21:43:02.416Z,7.48
2022-09-10T21:45:29.774Z,7.58
2022-09-10T21:47:57.478Z,7.64
2022-09-10T21:50:25.425Z,7.67
2022-09-10T21:52:52.622Z,7.60
2022-09-10T21:55:21.052Z,7.66
2022-09-10T21:57:48.275Z,7.63
2022-09-10T22:00:20.935Z,7.60
2022-09-10T22:02:51.313Z,7.51
2022-09-10T22:05:19.194Z,7.50
2022-09-10T22:07:46.031Z,7.45
2022-09-10T22:10:13.027Z,7.46
2022-09-10T22:12:41.456Z,7.54
2022-09-10T22:15:09.424Z,7.45
2022-09-10T22:17:37.384Z,7.51
2022-09-10T22:20:05.170Z,7.52
2022-09-10T22:22:32.175Z,7.51
2022-09-10T22:24:59.223Z,7.57
2022-09-10T22:27:26.168Z,7.62
2022-09-10T22:29:54.482Z,7.56
2022-09-10T22:32:22.417Z,7.57
2022-09-10T22:34:49.167Z,7.55
2022-09-10T22:37:16.215Z,7.71
2022-09-10T22:39:44.036Z,7.67
2022-09-10T22:42:12.129Z,7.72
2022-09-10T22:44:39.104Z,7.64
2022-09-10T22:47:07.434Z,7.69
2022-09-10T22:49:34.510Z,7.69
2022-09-10T22:52:02.900Z,7.59
2022-09-10T22:54:29.961Z,7.61
2022-09-10T22:56:56.864Z,7.75
2022-09-10T22:59:23.805Z,7.81
2022-09-10T23:01:51.646Z,7.72
2022-09-10T23:04:20.045Z,7.70
2022-09-10T23:06:46.887Z,7.65
2022-09-10T23:09:15.999Z,7.70
2022-09-10T23:11:43.523Z,7.67
2022-09-10T23:14:12.722Z,7.64
2022-09-10T23:16:41.224Z,7.56
2022-09-10T23:19:12.881Z,7.52
2022-09-10T23:21:43.791Z,7.54
2022-09-10T23:24:16.067Z,7.55
2022-09-10T23:26:44.025Z,7.54
2022-09-10T23:29:13.097Z,7.69
2022-09-10T23:31:40.380Z,7.68
2022-09-10T23:34:09.874Z,7.71
2022-09-10T23:36:38.492Z,7.76
2022-09-10T23:39:12.315Z,7.74
2022-09-10T23:41:44.260Z,7.76
2022-09-10T23:44:11.109Z,7.74
2022-09-10T23:46:38.566Z,7.55
2022-09-10T23:49:06.735Z,7.63
2022-09-10T23:51:36.729Z,7.68
2022-09-10T23:54:04.718Z,7.66
2022-09-10T23:56:36.606Z,7.65
2022-09-10T23:59:04.149Z,7.55
